KSPI/SPI METAR and TAF weather

Enter ICAO airport designator
Station Type Date Time Source
KSPI METAR 2021/09/25 03:52 UTC NOAA

KSPI 250352Z AUTO 33013G20KT 10SM OVC085 19/12 A2997 RMK AO2 SLP145 T01890122


Station Type Date Time Source
KSPI Decoded METAR 2021/09/25 03:52 UTC NOAA

ABRAHAM LINCOLN CAPITAL AIRPORT , IL, United States (KSPI) 39-51N 89-41W 181M
Sep 24, 2021 - 11:52 PM EDT / 2021.09.25 0352 UTC
Wind: from the NNW (330 degrees) at 15 MPH (13 KT) gusting to 23 MPH (20 KT):0
Visibility: 10 mile(s):0
Sky conditions: overcast
Temperature: 66.0 F (18.9 C)
Dew Point: 54.0 F (12.2 C)
Relative Humidity: 65%
Pressure (altimeter): 29.97 in. Hg (1014 hPa)
ob: KSPI 250352Z AUTO 33013G20KT 10SM OVC085 19/12 A2997 RMK AO2 SLP145 T01890122
cycle: 4

Station Type Date Time Source
KSPI TAF 2021/09/25 02:27 UTC NOAA

TAF
AMD KSPI 250225Z 2502/2524 21010KT P6SM BKN200
FM250300 23011KT P6SM -RA SCT025 BKN060
FM250400 30011G19KT P6SM -RA SCT025 BKN060
FM250500 32013KT P6SM BKN045
FM251100 27006KT P6SM SKC
FM251700 28010G20KT P6SM FEW250

Example: see airport list